Startpagina
METAR-TAF:

METAR-TAF

Vliegvelden :

Irkoetsk, Rusland

Luchthaven Irkoetsk

breedte: 52-16N, lengte: 104-19E, hoogte: 513 m

Actueel weer

Dit bericht is 29 minuten geleden gemaakt, om 16:00 UTC
Wind 2 kt uit het oosten
Temperatuur 13°C
Vochtigheid 100%
Druk 1010 hPa
Zicht: 0300 m
mist

METAR: UIII 251600Z 09001MPS 5000 0300NW R12/0800D FG NSC 13/13 Q1010 R12/CLRD60 NOSIG RMK QFE715/0953

Tijdstip: 00:29 (16:29 UTC)

Verwachting

Dit bericht is 2 uur en het 29 minuten geleden gemaakt, om 14:00 UTC
Verwachting geldig van 25 om 15 UTC tot 26 om 15 UTC
Wind 2 kt uit variabele richting
Zicht: 0300 m
op 100 ft
mist
Tijdelijke
van 25 om 15 UTC tot 26 om 02 UTC
Zicht: 1500 m
Verspreide wolken op 300 ft
nevel
Wijzigt naar
van 26 om 02 UTC tot 26 om 03 UTC
Zicht 10 km of meer
Wijzigt naar
van 26 om 03 UTC tot 26 om 05 UTC
Wind 12 kt uit het zuidzuidoosten

TAF: UIII 251400Z 2515/2615 VRB01MPS 0300 FG VV001 TEMPO 2515/2602 1500 BR SCT003 BECMG 2602/2603 9999 NSW NSC BECMG 2603/2605 16006MPS

Waarnemingen en weersverwachtingen van meer dan 4000 vliegvelden (METAR en TAF).

De beschikbare stations zijn de gele en rode punten op de kaart.

Ga met uw muis naar het station om de naam te zien.

Klik dan om waarnemingen en weersverwachtingen te zien.

kaart wijzigen: klik op de groene knoppen met een zwart kruis om in te zoomen, op de groene knop met een streepje om uit te zoomen of op de groene pijlen voor aangrenzende kaarten.


METAR-TAF: